createdAt,value
2023-05-10T00:01:08.630Z,0.50
2023-05-10T00:03:35.540Z,0.40
2023-05-10T00:06:02.552Z,0.40
2023-05-10T00:08:29.358Z,0.40
2023-05-10T00:10:56.291Z,0.30
2023-05-10T00:13:23.373Z,0.40
2023-05-10T00:15:50.284Z,0.40
2023-05-10T00:18:16.975Z,0.40
2023-05-10T00:20:43.697Z,0.40
2023-05-10T00:23:10.397Z,0.40
2023-05-10T00:25:37.247Z,0.40
2023-05-10T00:28:04.017Z,0.40
2023-05-10T00:30:30.720Z,0.40
2023-05-10T00:32:57.386Z,0.40
2023-05-10T00:35:24.330Z,0.40
2023-05-10T00:37:51.080Z,0.40
2023-05-10T00:40:18.005Z,0.40
2023-05-10T00:42:44.932Z,0.40
2023-05-10T00:45:12.403Z,0.40
2023-05-10T00:47:39.242Z,0.40
2023-05-10T00:50:07.051Z,0.40
2023-05-10T00:52:34.150Z,0.40
2023-05-10T00:55:01.324Z,0.40
2023-05-10T00:57:28.399Z,0.40
2023-05-10T00:59:55.221Z,0.40
2023-05-10T01:02:21.891Z,0.38
2023-05-10T01:04:49.480Z,0.40
2023-05-10T01:07:16.361Z,0.40
2023-05-10T01:09:43.040Z,0.40
2023-05-10T01:12:09.852Z,0.40
2023-05-10T01:14:37.325Z,0.40
2023-05-10T01:17:05.973Z,0.43
2023-05-10T01:19:35.993Z,0.40
2023-05-10T01:22:05.865Z,0.40
2023-05-10T01:24:35.339Z,0.40
2023-05-10T01:27:10.962Z,0.40
2023-05-10T01:30:05.008Z,0.38
2023-05-10T01:33:03.979Z,0.40
2023-05-10T01:35:46.845Z,0.40
2023-05-10T01:38:23.575Z,0.40
2023-05-10T01:41:19.706Z,0.40
2023-05-10T01:43:56.785Z,0.40
2023-05-10T01:46:40.562Z,0.40
2023-05-10T01:49:27.596Z,0.40
2023-05-10T01:51:59.812Z,0.40
2023-05-10T01:54:28.446Z,0.40
2023-05-10T01:57:04.819Z,0.40
2023-05-10T01:59:41.673Z,0.40
2023-05-10T02:02:12.836Z,0.40
2023-05-10T02:04:41.394Z,0.40
2023-05-10T02:07:09.846Z,0.38
2023-05-10T02:09:38.226Z,0.40
2023-05-10T02:12:07.464Z,0.40
2023-05-10T02:14:37.083Z,0.30
2023-05-10T02:17:06.236Z,0.40
2023-05-10T02:19:34.755Z,0.40
2023-05-10T02:22:02.976Z,0.38
2023-05-10T02:24:30.695Z,0.30
2023-05-10T02:26:58.262Z,0.30
2023-05-10T02:29:27.976Z,0.40
2023-05-10T02:31:56.663Z,0.30
2023-05-10T02:34:26.283Z,0.40
2023-05-10T02:36:54.757Z,0.40
2023-05-10T02:39:22.585Z,0.40
2023-05-10T02:41:54.532Z,0.30
2023-05-10T02:44:23.278Z,0.40
2023-05-10T02:46:50.149Z,0.35
2023-05-10T02:49:17.098Z,0.30
2023-05-10T02:51:49.994Z,0.40
2023-05-10T02:54:24.332Z,0.40
2023-05-10T02:57:03.954Z,0.40
2023-05-10T02:59:30.755Z,0.43
2023-05-10T03:01:57.524Z,0.40
2023-05-10T03:04:24.285Z,0.30
2023-05-10T03:06:52.112Z,0.40
2023-05-10T03:09:19.008Z,0.50
2023-05-10T03:12:01.937Z,0.38
2023-05-10T03:14:49.907Z,0.40
2023-05-10T03:17:31.637Z,0.40
2023-05-10T03:20:04.139Z,0.30
2023-05-10T03:22:39.304Z,0.40
2023-05-10T03:25:09.265Z,0.30
2023-05-10T03:27:39.981Z,0.40
2023-05-10T03:30:09.057Z,0.40
2023-05-10T03:32:35.917Z,0.40
2023-05-10T05:04:07.897Z,0.40
2023-05-10T05:06:34.733Z,0.40
2023-05-10T05:09:01.393Z,0.30
2023-05-10T05:11:28.169Z,0.40
2023-05-10T05:13:55.061Z,0.40
2023-05-10T05:16:22.489Z,0.40
2023-05-10T05:18:49.274Z,0.40
2023-05-10T05:21:17.389Z,0.38
2023-05-10T05:23:44.910Z,0.40
2023-05-10T05:26:11.824Z,0.40
2023-05-10T05:28:38.959Z,0.40
2023-05-10T05:31:06.672Z,0.40
2023-05-10T05:33:33.533Z,0.40
2023-05-10T05:36:07.375Z,0.30
2023-05-10T05:38:34.450Z,0.30
2023-05-10T05:41:01.291Z,0.40
2023-05-10T05:43:30.264Z,0.30
2023-05-10T05:45:59.076Z,0.40
2023-05-10T05:48:26.213Z,0.40
2023-05-10T05:50:56.996Z,0.40
2023-05-10T05:53:24.324Z,0.40
2023-05-10T05:55:55.493Z,0.30
2023-05-10T05:58:25.218Z,0.40
2023-05-10T06:00:55.640Z,0.40
2023-05-10T06:03:22.379Z,0.40
2023-05-10T06:05:49.356Z,0.40
2023-05-10T06:08:16.125Z,0.40
2023-05-10T06:10:42.844Z,0.40
2023-05-10T06:13:09.555Z,0.40
2023-05-10T06:15:36.471Z,0.40
2023-05-10T06:18:03.677Z,0.38
2023-05-10T06:20:32.457Z,0.30
2023-05-10T06:22:59.636Z,0.30
2023-05-10T06:25:26.369Z,0.40
2023-05-10T06:27:58.001Z,0.40
2023-05-10T06:30:28.533Z,0.40
2023-05-10T06:32:55.977Z,0.30
2023-05-10T06:35:22.817Z,0.35
2023-05-10T06:37:50.325Z,0.40
2023-05-10T06:40:17.481Z,0.30
2023-05-10T06:42:45.942Z,0.33
2023-05-10T06:45:13.655Z,0.40
2023-05-10T06:47:40.346Z,0.40
2023-05-10T06:50:08.379Z,0.40
2023-05-10T06:52:35.309Z,0.40
2023-05-10T06:55:02.553Z,0.40
2023-05-10T06:57:31.744Z,0.40
2023-05-10T07:00:02.526Z,0.30
2023-05-10T07:02:29.406Z,0.30
2023-05-10T07:04:56.420Z,0.40
2023-05-10T07:07:23.173Z,0.40
2023-05-10T07:09:50.893Z,0.38
2023-05-10T07:12:17.751Z,0.30
2023-05-10T07:14:44.504Z,0.30
2023-05-10T07:17:11.341Z,0.30
2023-05-10T07:19:38.240Z,0.40
2023-05-10T07:22:04.985Z,0.30
2023-05-10T07:24:33.050Z,0.30
2023-05-10T07:29:26.847Z,0.30
2023-05-10T07:31:55.297Z,0.30
2023-05-10T07:34:23.190Z,0.40
2023-05-10T07:36:49.880Z,0.30
2023-05-10T07:39:26.589Z,0.30
2023-05-10T07:41:54.863Z,0.40
2023-05-10T07:44:24.829Z,0.35
2023-05-10T07:46:51.801Z,0.30
2023-05-10T07:49:18.485Z,0.30
2023-05-10T07:51:45.194Z,0.30
2023-05-10T07:54:11.936Z,0.35
2023-05-10T07:56:38.886Z,0.30
2023-05-10T07:59:07.410Z,0.30
2023-05-10T08:01:35.723Z,0.30
2023-05-10T08:04:03.034Z,0.30
2023-05-10T08:06:31.272Z,0.30
2023-05-10T08:08:58.343Z,0.30
2023-05-10T08:11:25.216Z,0.30
2023-05-10T08:13:52.582Z,0.30
2023-05-10T08:16:19.494Z,0.30
2023-05-10T08:18:48.042Z,0.30
2023-05-10T08:21:16.403Z,0.30
2023-05-10T08:23:44.773Z,0.30
2023-05-10T08:26:12.056Z,0.30
2023-05-10T08:28:38.933Z,0.30
2023-05-10T08:31:06.563Z,0.30
2023-05-10T08:33:33.526Z,0.30
2023-05-10T08:36:00.471Z,0.30
2023-05-10T08:38:27.160Z,0.30
2023-05-10T08:40:57.925Z,0.30
2023-05-10T08:43:29.830Z,0.30
2023-05-10T08:45:57.765Z,0.30
2023-05-10T08:50:55.791Z,0.30
2023-05-10T08:53:26.120Z,0.30
2023-05-10T08:55:53.330Z,0.30
2023-05-10T08:58:21.265Z,0.30
2023-05-10T09:00:50.204Z,0.30
2023-05-10T09:03:17.090Z,0.30
2023-05-10T09:05:45.619Z,0.30
2023-05-10T09:08:13.839Z,0.30
2023-05-10T09:10:41.447Z,0.30
2023-05-10T09:13:10.757Z,0.30
2023-05-10T09:15:37.404Z,0.30
2023-05-10T09:18:04.330Z,0.30
2023-05-10T09:20:32.028Z,0.30
2023-05-10T09:22:58.731Z,0.30
2023-05-10T09:25:25.453Z,0.30
2023-05-10T09:27:53.044Z,0.30
2023-05-10T09:30:30.233Z,0.30
2023-05-10T09:32:57.957Z,0.30
2023-05-10T09:35:29.511Z,0.30
2023-05-10T09:38:01.375Z,0.30
2023-05-10T09:40:29.872Z,0.30
2023-05-10T09:42:57.809Z,0.30
2023-05-10T09:47:52.689Z,0.22
2023-05-10T09:50:21.422Z,0.30
2023-05-10T09:52:52.386Z,0.30
2023-05-10T09:55:21.685Z,0.30
2023-05-10T09:57:49.516Z,0.30
2023-05-10T10:02:56.429Z,0.30
2023-05-10T10:05:29.889Z,0.30
2023-05-10T10:07:58.369Z,0.30
2023-05-10T10:10:29.066Z,0.30
2023-05-10T10:12:56.381Z,0.30
2023-05-10T10:15:23.727Z,0.30
2023-05-10T10:17:51.629Z,0.30
2023-05-10T10:20:20.140Z,0.30
2023-05-10T10:22:48.022Z,0.30
2023-05-10T10:25:17.776Z,0.30
2023-05-10T10:27:54.360Z,0.30
2023-05-10T10:30:39.659Z,0.22
2023-05-10T10:33:29.150Z,0.30
2023-05-10T10:35:58.873Z,0.30
2023-05-10T10:38:25.724Z,0.30
2023-05-10T10:41:12.078Z,0.30
2023-05-10T10:43:38.840Z,0.28
2023-05-10T10:46:16.343Z,0.30
2023-05-10T10:48:49.528Z,0.30
2023-05-10T10:51:16.263Z,0.30
2023-05-10T10:53:44.518Z,0.30
2023-05-10T10:56:16.224Z,0.30
2023-05-10T10:58:52.303Z,0.20
2023-05-10T11:01:20.317Z,0.20
2023-05-10T11:04:05.270Z,0.20
2023-05-10T11:06:33.516Z,0.20
2023-05-10T11:09:11.002Z,0.20
2023-05-10T11:11:50.426Z,0.20
2023-05-10T11:14:21.720Z,0.20
2023-05-10T11:16:48.522Z,0.30
2023-05-10T11:19:17.451Z,0.30
2023-05-10T11:21:47.639Z,0.20
2023-05-10T11:24:17.139Z,0.20
2023-05-10T11:26:44.396Z,0.20
2023-05-10T11:29:11.421Z,0.20
2023-05-10T11:31:45.038Z,0.20
2023-05-10T11:34:12.231Z,0.30
2023-05-10T11:36:39.393Z,0.22
2023-05-10T11:39:06.881Z,0.20
2023-05-10T11:41:33.758Z,0.30
2023-05-10T11:44:00.718Z,0.30
2023-05-10T11:46:29.478Z,0.30
2023-05-10T11:49:04.926Z,0.30
2023-05-10T11:51:36.609Z,0.30
2023-05-10T11:54:10.529Z,0.28
2023-05-10T11:56:41.486Z,0.28
2023-05-10T11:59:09.133Z,0.30
2023-05-10T12:04:03.744Z,0.30
2023-05-10T12:06:32.985Z,0.30
2023-05-10T12:08:59.937Z,0.30
2023-05-10T12:11:28.437Z,0.32
2023-05-10T12:13:56.164Z,0.30
2023-05-10T12:16:26.612Z,0.30
2023-05-10T12:18:54.789Z,0.35
2023-05-10T12:21:22.508Z,0.30
2023-05-10T12:23:54.334Z,0.40
2023-05-10T12:26:25.847Z,0.30
2023-05-10T12:28:52.684Z,0.40
2023-05-10T12:31:19.696Z,0.30
2023-05-10T12:33:47.335Z,0.30
2023-05-10T12:36:15.767Z,0.30
2023-05-10T12:38:44.476Z,0.30
2023-05-10T12:41:16.560Z,0.30
2023-05-10T12:43:43.414Z,0.30
2023-05-10T12:46:15.395Z,0.20
2023-05-10T12:48:43.705Z,0.30
2023-05-10T12:51:12.735Z,0.30
2023-05-10T12:53:41.778Z,0.30
2023-05-10T12:56:11.008Z,0.30
2023-05-10T12:58:37.729Z,0.30
2023-05-10T13:01:06.092Z,0.25
2023-05-10T13:03:33.221Z,0.30
2023-05-10T13:06:00.084Z,0.30
2023-05-10T13:08:26.916Z,0.30
2023-05-10T13:10:54.193Z,0.30
2023-05-10T13:13:21.050Z,0.30
2023-05-10T13:15:47.976Z,0.30
2023-05-10T13:18:17.725Z,0.30
2023-05-10T13:20:45.314Z,0.30
2023-05-10T13:23:12.048Z,0.20
2023-05-10T13:25:38.955Z,0.30
2023-05-10T13:28:05.612Z,0.30
2023-05-10T13:30:32.524Z,0.20
2023-05-10T13:33:01.954Z,0.23
2023-05-10T13:35:28.609Z,0.20
2023-05-10T13:37:57.781Z,0.30
2023-05-10T13:40:24.616Z,0.30
2023-05-10T13:42:51.272Z,0.30
2023-05-10T13:45:18.106Z,0.20
2023-05-10T13:47:47.804Z,0.30
2023-05-10T13:50:16.677Z,0.30
2023-05-10T13:52:43.361Z,0.20
2023-05-10T13:55:10.113Z,0.30
2023-05-10T13:57:36.930Z,0.30
2023-05-10T14:00:07.528Z,0.30
2023-05-10T14:02:39.522Z,0.30
2023-05-10T14:05:06.739Z,0.20
2023-05-10T14:07:33.411Z,0.30
2023-05-10T14:10:00.145Z,0.30
2023-05-10T14:12:26.897Z,0.20
2023-05-10T14:14:53.523Z,0.30
2023-05-10T14:17:20.373Z,0.30
2023-05-10T14:19:47.006Z,0.28
2023-05-10T14:22:13.711Z,0.30
2023-05-10T14:24:40.393Z,0.30
2023-05-10T14:27:07.177Z,0.30
2023-05-10T14:29:33.944Z,0.30
2023-05-10T14:32:00.695Z,0.30
2023-05-10T14:34:27.473Z,0.23
2023-05-10T14:36:54.254Z,0.20
2023-05-10T14:39:21.010Z,0.20
2023-05-10T14:41:48.278Z,0.20
2023-05-10T14:44:16.352Z,0.30
2023-05-10T14:46:43.042Z,0.22
2023-05-10T14:49:09.685Z,0.20
2023-05-10T14:51:37.828Z,0.30
2023-05-10T14:54:04.707Z,0.28
2023-05-10T14:56:31.450Z,0.28
2023-05-10T14:58:58.161Z,0.22
2023-05-10T15:01:25.592Z,0.28
2023-05-10T15:03:52.890Z,0.25
2023-05-10T15:06:25.858Z,0.30
2023-05-10T15:08:52.579Z,0.28
2023-05-10T15:11:19.599Z,0.20
2023-05-10T15:13:46.276Z,0.30
2023-05-10T15:16:12.932Z,0.30
2023-05-10T15:18:39.745Z,0.28
2023-05-10T15:21:06.519Z,0.30
2023-05-10T15:23:33.179Z,0.20
2023-05-10T15:25:59.828Z,0.20
2023-05-10T15:28:26.450Z,0.20
2023-05-10T15:30:53.340Z,0.25
2023-05-10T15:33:19.956Z,0.20
2023-05-10T15:41:09.867Z,0.30
2023-05-10T15:43:36.767Z,0.20
2023-05-10T15:46:03.456Z,0.30
2023-05-10T15:48:40.927Z,0.30
2023-05-10T15:51:07.670Z,0.30
2023-05-10T15:53:56.463Z,0.30
2023-05-10T15:56:27.447Z,0.30
2023-05-10T15:59:00.483Z,0.30
2023-05-10T16:01:27.497Z,0.20
2023-05-10T16:03:54.325Z,0.30
2023-05-10T16:06:32.768Z,0.30
2023-05-10T16:08:59.655Z,0.20
2023-05-10T16:11:29.823Z,0.30
2023-05-10T16:13:56.742Z,0.30
2023-05-10T16:16:24.017Z,0.20
2023-05-10T16:18:52.234Z,0.20
2023-05-10T16:21:19.445Z,0.20
2023-05-10T16:23:46.602Z,0.20
2023-05-10T16:26:13.533Z,0.30
2023-05-10T16:28:41.273Z,0.30
2023-05-10T16:31:07.888Z,0.30
2023-05-10T16:33:34.572Z,0.20
2023-05-10T16:36:01.198Z,0.20
2023-05-10T16:38:27.872Z,0.22
2023-05-10T16:40:55.276Z,0.30
2023-05-10T16:43:24.080Z,0.30
2023-05-10T16:46:01.074Z,0.20
2023-05-10T16:48:28.105Z,0.20
2023-05-10T16:50:54.800Z,0.20
2023-05-10T16:53:21.568Z,0.30
2023-05-10T16:55:48.211Z,0.20
2023-05-10T16:58:14.823Z,0.20
2023-05-10T17:00:42.036Z,0.30
2023-05-10T17:03:08.751Z,0.30
2023-05-10T17:05:35.731Z,0.30
2023-05-10T17:08:02.446Z,0.30
2023-05-10T17:10:29.088Z,0.20
2023-05-10T17:12:55.759Z,0.20
2023-05-10T17:15:23.925Z,0.30
2023-05-10T17:17:50.695Z,0.30
2023-05-10T17:20:17.667Z,0.20
2023-05-10T17:22:44.365Z,0.30
2023-05-10T17:25:11.393Z,0.28
2023-05-10T17:27:38.142Z,0.23
2023-05-10T17:30:05.595Z,0.30
2023-05-10T17:32:32.362Z,0.30
2023-05-10T17:34:59.068Z,0.30
2023-05-10T17:37:25.882Z,0.30
2023-05-10T17:39:52.656Z,0.30
2023-05-10T17:42:20.974Z,0.30
2023-05-10T17:44:47.696Z,0.20
2023-05-10T17:47:14.384Z,0.30
2023-05-10T17:49:41.349Z,0.30
2023-05-10T17:52:08.052Z,0.30
2023-05-10T17:54:34.881Z,0.20
2023-05-10T17:57:01.828Z,0.30
2023-05-10T17:59:28.519Z,0.27
2023-05-10T18:01:56.533Z,0.30
2023-05-10T18:04:23.353Z,0.30
2023-05-10T18:06:50.127Z,0.20
2023-05-10T18:09:17.825Z,0.20
2023-05-10T18:11:44.672Z,0.20
2023-05-10T18:14:11.361Z,0.30
2023-05-10T18:16:38.079Z,0.30
2023-05-10T18:19:04.913Z,0.22
2023-05-10T18:21:31.757Z,0.30
2023-05-10T18:26:38.546Z,0.30
2023-05-10T18:29:05.722Z,0.30
2023-05-10T18:31:35.392Z,0.30
2023-05-10T18:34:04.960Z,0.20
2023-05-10T18:36:51.900Z,0.30
2023-05-10T18:56:22.041Z,0.40
2023-05-10T18:59:04.496Z,0.40
2023-05-10T19:01:31.607Z,0.32
2023-05-10T19:07:05.540Z,0.40
2023-05-10T19:09:32.926Z,0.40
2023-05-10T19:12:12.396Z,0.30
2023-05-10T19:14:41.241Z,0.40
2023-05-10T19:17:08.743Z,0.30
2023-05-10T19:20:04.118Z,0.40
2023-05-10T19:22:47.101Z,0.30
2023-05-10T19:25:24.969Z,0.40
2023-05-10T19:36:58.735Z,0.40
2023-05-10T19:39:26.999Z,0.40
2023-05-10T19:41:53.654Z,0.40
2023-05-10T19:44:23.123Z,0.40
2023-05-10T19:46:50.085Z,0.30
2023-05-10T19:49:17.910Z,0.35
2023-05-10T19:51:44.616Z,0.40
2023-05-10T19:54:11.334Z,0.40
2023-05-10T19:56:40.858Z,0.40
2023-05-10T19:59:08.009Z,0.30
2023-05-10T20:01:34.925Z,0.40
2023-05-10T20:04:02.002Z,0.40
2023-05-10T20:06:31.323Z,0.40
2023-05-10T20:08:57.959Z,0.40
2023-05-10T20:11:24.680Z,0.35
2023-05-10T20:13:51.891Z,0.40
2023-05-10T20:16:18.737Z,0.40
2023-05-10T20:18:46.569Z,0.40
2023-05-10T20:21:13.406Z,0.40
2023-05-10T20:23:40.242Z,0.40
2023-05-10T20:26:06.887Z,0.40
2023-05-10T20:28:33.564Z,0.40
2023-05-10T20:31:01.915Z,0.40
2023-05-10T20:33:28.660Z,0.40
2023-05-10T20:35:55.296Z,0.30
2023-05-10T20:38:22.122Z,0.30
2023-05-10T20:40:49.070Z,0.40
2023-05-10T20:43:15.761Z,0.30
2023-05-10T20:45:42.556Z,0.30
2023-05-10T20:48:09.683Z,0.40
2023-05-10T20:50:36.438Z,0.33
2023-05-10T20:53:03.136Z,0.30
2023-05-10T20:55:29.863Z,0.38
2023-05-10T20:57:56.596Z,0.30
2023-05-10T21:00:23.397Z,0.40
2023-05-10T21:02:50.254Z,0.40
2023-05-10T21:05:18.369Z,0.40
2023-05-10T21:07:45.155Z,0.40
2023-05-10T21:10:12.351Z,0.40
2023-05-10T21:12:39.155Z,0.40
2023-05-10T21:15:06.362Z,0.30
2023-05-10T21:17:33.377Z,0.40
2023-05-10T21:20:00.149Z,0.40
2023-05-10T21:22:26.930Z,0.40
2023-05-10T21:24:53.641Z,0.40
2023-05-10T21:27:20.768Z,0.40
2023-05-10T21:29:50.096Z,0.40
2023-05-10T21:32:16.960Z,0.40
2023-05-10T21:34:43.581Z,0.30
2023-05-10T21:37:10.333Z,0.30
2023-05-10T21:39:37.075Z,0.40
2023-05-10T21:42:05.321Z,0.40
2023-05-10T21:44:32.122Z,0.30
2023-05-10T21:46:58.933Z,0.30
2023-05-10T21:49:26.463Z,0.40
2023-05-10T21:51:53.112Z,0.30
2023-05-10T21:54:20.837Z,0.30
2023-05-10T21:56:47.638Z,0.40
2023-05-10T21:59:14.360Z,0.30
2023-05-10T22:01:41.874Z,0.32
2023-05-10T22:04:08.550Z,0.30
2023-05-10T22:06:36.009Z,0.40
2023-05-10T22:09:02.717Z,0.30
2023-05-10T22:11:29.399Z,0.30
2023-05-10T22:13:56.309Z,0.30
2023-05-10T22:16:23.057Z,0.30
2023-05-10T22:18:49.771Z,0.30
2023-05-10T22:21:16.555Z,0.30
2023-05-10T22:23:43.221Z,0.30
2023-05-10T22:26:09.854Z,0.40
2023-05-10T22:28:36.520Z,0.30
2023-05-10T22:31:03.416Z,0.38
2023-05-10T22:33:30.141Z,0.40
2023-05-10T22:35:56.851Z,0.40
2023-05-10T22:38:23.596Z,0.30
2023-05-10T22:41:17.221Z,0.40
2023-05-10T22:44:07.178Z,0.40
2023-05-10T22:46:37.124Z,0.40
2023-05-10T22:49:03.860Z,0.30
2023-05-10T22:51:30.576Z,0.30
2023-05-10T22:53:57.272Z,0.38
2023-05-10T22:56:24.116Z,0.22
2023-05-10T22:58:51.300Z,0.35
2023-05-10T23:01:17.982Z,0.40
2023-05-10T23:03:44.811Z,0.30
2023-05-10T23:06:11.585Z,0.40
2023-05-10T23:08:38.390Z,0.30
2023-05-10T23:11:05.168Z,0.40
2023-05-10T23:13:31.805Z,0.40
2023-05-10T23:15:58.517Z,0.30
2023-05-10T23:18:25.250Z,0.30
2023-05-10T23:20:53.208Z,0.30
2023-05-10T23:25:46.653Z,0.40
2023-05-10T23:28:14.928Z,0.30
2023-05-10T23:30:41.664Z,0.30
2023-05-10T23:33:08.534Z,0.40
2023-05-10T23:35:35.320Z,0.40
2023-05-10T23:38:02.096Z,0.40
2023-05-10T23:40:28.748Z,0.40
2023-05-10T23:42:55.454Z,0.38
2023-05-10T23:45:22.130Z,0.30
2023-05-10T23:47:48.976Z,0.40
2023-05-10T23:50:15.870Z,0.30
2023-05-10T23:52:48.816Z,0.40
2023-05-10T23:55:15.651Z,0.32
2023-05-10T23:57:42.378Z,0.30
